sensor_id;sensor_type;location;lat;lon;timestamp;P1;durP1;ratioP1;P2;durP2;ratioP2
41532;SDS011;27262;-35.248;149.138;2022-10-22T00:01:10;3.80;;;1.00;;
41532;SDS011;27262;-35.248;149.138;2022-10-22T00:03:41;2.83;;;0.80;;
41532;SDS011;27262;-35.248;149.138;2022-10-22T00:06:12;1.85;;;0.80;;
41532;SDS011;27262;-35.248;149.138;2022-10-22T00:08:42;0.88;;;0.80;;
41532;SDS011;27262;-35.248;149.138;2022-10-22T00:11:13;0.75;;;0.75;;
41532;SDS011;27262;-35.248;149.138;2022-10-22T00:13:46;1.10;;;0.95;;
41532;SDS011;27262;-35.248;149.138;2022-10-22T00:16:16;7.13;;;0.70;;
41532;SDS011;27262;-35.248;149.138;2022-10-22T00:18:47;2.88;;;0.93;;
41532;SDS011;27262;-35.248;149.138;2022-10-22T00:21:17;2.75;;;1.00;;
41532;SDS011;27262;-35.248;149.138;2022-10-22T00:23:47;1.77;;;1.00;;
41532;SDS011;27262;-35.248;149.138;2022-10-22T00:26:18;1.30;;;0.70;;
41532;SDS011;27262;-35.248;149.138;2022-10-22T00:28:48;5.10;;;1.20;;
41532;SDS011;27262;-35.248;149.138;2022-10-22T00:31:18;1.58;;;0.70;;
41532;SDS011;27262;-35.248;149.138;2022-10-22T00:33:48;1.25;;;0.82;;
41532;SDS011;27262;-35.248;149.138;2022-10-22T00:36:19;1.25;;;0.82;;
41532;SDS011;27262;-35.248;149.138;2022-10-22T00:38:50;2.08;;;1.20;;
41532;SDS011;27262;-35.248;149.138;2022-10-22T00:41:20;1.20;;;0.93;;
41532;SDS011;27262;-35.248;149.138;2022-10-22T00:43:55;2.10;;;1.00;;
41532;SDS011;27262;-35.248;149.138;2022-10-22T00:46:27;0.82;;;0.73;;
41532;SDS011;27262;-35.248;149.138;2022-10-22T00:48:59;2.53;;;0.90;;
41532;SDS011;27262;-35.248;149.138;2022-10-22T00:51:32;1.02;;;0.75;;
41532;SDS011;27262;-35.248;149.138;2022-10-22T00:54:04;1.05;;;0.90;;
41532;SDS011;27262;-35.248;149.138;2022-10-22T00:56:37;2.72;;;0.95;;
41532;SDS011;27262;-35.248;149.138;2022-10-22T00:59:07;2.90;;;0.77;;
41532;SDS011;27262;-35.248;149.138;2022-10-22T01:01:38;3.25;;;0.90;;
41532;SDS011;27262;-35.248;149.138;2022-10-22T01:04:08;1.52;;;0.80;;
41532;SDS011;27262;-35.248;149.138;2022-10-22T01:06:38;1.13;;;0.80;;
41532;SDS011;27262;-35.248;149.138;2022-10-22T01:09:15;1.00;;;0.82;;
41532;SDS011;27262;-35.248;149.138;2022-10-22T01:31:47;1.38;;;0.95;;
41532;SDS011;27262;-35.248;149.138;2022-10-22T01:34:27;1.05;;;0.90;;
41532;SDS011;27262;-35.248;149.138;2022-10-22T01:36:59;1.13;;;0.82;;
41532;SDS011;27262;-35.248;149.138;2022-10-22T01:39:30;0.70;;;0.60;;
41532;SDS011;27262;-35.248;149.138;2022-10-22T01:42:02;1.17;;;0.70;;
41532;SDS011;27262;-35.248;149.138;2022-10-22T01:44:33;0.65;;;0.65;;
41532;SDS011;27262;-35.248;149.138;2022-10-22T01:53:26;0.88;;;0.70;;
41532;SDS011;27262;-35.248;149.138;2022-10-22T01:59:02;2.35;;;0.70;;
41532;SDS011;27262;-35.248;149.138;2022-10-22T02:04:44;1.85;;;0.65;;
41532;SDS011;27262;-35.248;149.138;2022-10-22T02:07:24;1.02;;;0.93;;
41532;SDS011;27262;-35.248;149.138;2022-10-22T02:09:59;10.43;;;1.00;;
41532;SDS011;27262;-35.248;149.138;2022-10-22T02:12:30;2.33;;;0.88;;
41532;SDS011;27262;-35.248;149.138;2022-10-22T02:15:02;1.23;;;0.90;;
41532;SDS011;27262;-35.248;149.138;2022-10-22T02:17:33;2.85;;;0.82;;
41532;SDS011;27262;-35.248;149.138;2022-10-22T02:20:07;1.35;;;0.70;;
41532;SDS011;27262;-35.248;149.138;2022-10-22T02:22:42;1.10;;;0.77;;
41532;SDS011;27262;-35.248;149.138;2022-10-22T02:25:13;1.40;;;0.80;;
41532;SDS011;27262;-35.248;149.138;2022-10-22T02:27:45;1.35;;;0.88;;
41532;SDS011;27262;-35.248;149.138;2022-10-22T02:30:23;1.60;;;0.90;;
41532;SDS011;27262;-35.248;149.138;2022-10-22T02:32:58;4.90;;;1.00;;
41532;SDS011;27262;-35.248;149.138;2022-10-22T02:35:48;2.65;;;0.93;;
41532;SDS011;27262;-35.248;149.138;2022-10-22T02:38:22;2.20;;;0.95;;
41532;SDS011;27262;-35.248;149.138;2022-10-22T02:40:53;4.30;;;0.93;;
41532;SDS011;27262;-35.248;149.138;2022-10-22T02:43:24;4.88;;;1.00;;
41532;SDS011;27262;-35.248;149.138;2022-10-22T02:45:56;1.90;;;0.80;;
41532;SDS011;27262;-35.248;149.138;2022-10-22T02:48:26;0.95;;;0.85;;
41532;SDS011;27262;-35.248;149.138;2022-10-22T02:50:57;1.08;;;0.93;;
41532;SDS011;27262;-35.248;149.138;2022-10-22T02:53:27;1.80;;;1.08;;
41532;SDS011;27262;-35.248;149.138;2022-10-22T02:55:57;1.25;;;1.00;;
41532;SDS011;27262;-35.248;149.138;2022-10-22T02:58:28;2.85;;;1.00;;
41532;SDS011;27262;-35.248;149.138;2022-10-22T03:00:58;1.23;;;0.90;;
41532;SDS011;27262;-35.248;149.138;2022-10-22T03:03:28;1.10;;;0.98;;
41532;SDS011;27262;-35.248;149.138;2022-10-22T03:05:58;4.88;;;1.02;;
41532;SDS011;27262;-35.248;149.138;2022-10-22T03:08:29;2.30;;;1.02;;
41532;SDS011;27262;-35.248;149.138;2022-10-22T03:10:59;4.18;;;1.08;;
41532;SDS011;27262;-35.248;149.138;2022-10-22T03:13:29;2.15;;;1.17;;
41532;SDS011;27262;-35.248;149.138;2022-10-22T03:15:59;4.05;;;1.27;;
41532;SDS011;27262;-35.248;149.138;2022-10-22T03:18:30;4.90;;;1.25;;
41532;SDS011;27262;-35.248;149.138;2022-10-22T03:23:39;6.63;;;1.58;;
41532;SDS011;27262;-35.248;149.138;2022-10-22T03:26:11;5.43;;;1.33;;
41532;SDS011;27262;-35.248;149.138;2022-10-22T03:28:43;3.70;;;1.50;;
41532;SDS011;27262;-35.248;149.138;2022-10-22T03:31:15;8.52;;;1.58;;
41532;SDS011;27262;-35.248;149.138;2022-10-22T03:33:46;5.38;;;1.77;;
41532;SDS011;27262;-35.248;149.138;2022-10-22T03:36:16;4.13;;;1.60;;
41532;SDS011;27262;-35.248;149.138;2022-10-22T03:38:46;5.85;;;1.90;;
41532;SDS011;27262;-35.248;149.138;2022-10-22T03:41:29;5.00;;;1.77;;
41532;SDS011;27262;-35.248;149.138;2022-10-22T03:44:00;4.97;;;1.88;;
41532;SDS011;27262;-35.248;149.138;2022-10-22T03:46:31;4.82;;;1.55;;
41532;SDS011;27262;-35.248;149.138;2022-10-22T03:49:01;6.30;;;1.80;;
41532;SDS011;27262;-35.248;149.138;2022-10-22T03:51:32;9.82;;;2.20;;
41532;SDS011;27262;-35.248;149.138;2022-10-22T03:54:03;6.82;;;1.95;;
41532;SDS011;27262;-35.248;149.138;2022-10-22T03:56:33;6.82;;;2.17;;
41532;SDS011;27262;-35.248;149.138;2022-10-22T03:59:03;7.15;;;1.90;;
41532;SDS011;27262;-35.248;149.138;2022-10-22T04:01:34;8.25;;;2.00;;
41532;SDS011;27262;-35.248;149.138;2022-10-22T04:04:04;8.05;;;2.35;;
41532;SDS011;27262;-35.248;149.138;2022-10-22T04:06:34;5.80;;;1.60;;
41532;SDS011;27262;-35.248;149.138;2022-10-22T04:09:05;5.13;;;1.83;;
41532;SDS011;27262;-35.248;149.138;2022-10-22T04:11:35;6.28;;;2.10;;
41532;SDS011;27262;-35.248;149.138;2022-10-22T04:14:05;4.30;;;1.75;;
41532;SDS011;27262;-35.248;149.138;2022-10-22T04:16:35;4.78;;;1.83;;
41532;SDS011;27262;-35.248;149.138;2022-10-22T04:19:08;6.05;;;2.10;;
41532;SDS011;27262;-35.248;149.138;2022-10-22T04:21:39;5.95;;;2.03;;
41532;SDS011;27262;-35.248;149.138;2022-10-22T04:24:09;5.88;;;1.95;;
41532;SDS011;27262;-35.248;149.138;2022-10-22T04:26:39;7.20;;;2.33;;
41532;SDS011;27262;-35.248;149.138;2022-10-22T04:29:10;5.95;;;1.80;;
41532;SDS011;27262;-35.248;149.138;2022-10-22T04:31:42;6.25;;;1.75;;
41532;SDS011;27262;-35.248;149.138;2022-10-22T04:34:12;6.32;;;1.92;;
41532;SDS011;27262;-35.248;149.138;2022-10-22T04:36:43;4.38;;;1.60;;
41532;SDS011;27262;-35.248;149.138;2022-10-22T04:39:13;4.28;;;1.80;;
41532;SDS011;27262;-35.248;149.138;2022-10-22T04:41:43;9.70;;;2.45;;
41532;SDS011;27262;-35.248;149.138;2022-10-22T04:44:13;6.47;;;2.30;;
41532;SDS011;27262;-35.248;149.138;2022-10-22T04:46:44;6.20;;;1.95;;
41532;SDS011;27262;-35.248;149.138;2022-10-22T04:49:15;7.18;;;2.00;;
41532;SDS011;27262;-35.248;149.138;2022-10-22T04:51:46;4.28;;;1.67;;
41532;SDS011;27262;-35.248;149.138;2022-10-22T04:54:16;4.93;;;1.83;;
41532;SDS011;27262;-35.248;149.138;2022-10-22T04:56:46;4.10;;;1.70;;
41532;SDS011;27262;-35.248;149.138;2022-10-22T04:59:17;5.50;;;2.15;;
41532;SDS011;27262;-35.248;149.138;2022-10-22T05:01:48;3.72;;;1.70;;
41532;SDS011;27262;-35.248;149.138;2022-10-22T05:04:18;6.43;;;1.90;;
41532;SDS011;27262;-35.248;149.138;2022-10-22T05:06:48;4.43;;;1.70;;
41532;SDS011;27262;-35.248;149.138;2022-10-22T05:09:18;5.38;;;1.75;;
41532;SDS011;27262;-35.248;149.138;2022-10-22T05:11:50;5.53;;;1.77;;
41532;SDS011;27262;-35.248;149.138;2022-10-22T05:14:21;5.22;;;1.77;;
41532;SDS011;27262;-35.248;149.138;2022-10-22T05:16:53;3.75;;;1.60;;
41532;SDS011;27262;-35.248;149.138;2022-10-22T05:19:24;3.90;;;1.50;;
41532;SDS011;27262;-35.248;149.138;2022-10-22T05:21:57;4.93;;;1.83;;
41532;SDS011;27262;-35.248;149.138;2022-10-22T05:24:30;6.28;;;1.73;;
41532;SDS011;27262;-35.248;149.138;2022-10-22T05:27:04;3.92;;;1.58;;
41532;SDS011;27262;-35.248;149.138;2022-10-22T05:29:34;4.15;;;1.42;;
41532;SDS011;27262;-35.248;149.138;2022-10-22T05:32:04;3.78;;;1.60;;
41532;SDS011;27262;-35.248;149.138;2022-10-22T05:34:34;4.25;;;1.42;;
41532;SDS011;27262;-35.248;149.138;2022-10-22T05:37:05;5.38;;;1.45;;
41532;SDS011;27262;-35.248;149.138;2022-10-22T05:39:35;4.90;;;1.73;;
41532;SDS011;27262;-35.248;149.138;2022-10-22T05:42:07;3.92;;;1.60;;
41532;SDS011;27262;-35.248;149.138;2022-10-22T05:44:38;3.60;;;1.30;;
41532;SDS011;27262;-35.248;149.138;2022-10-22T05:47:08;4.15;;;1.40;;
41532;SDS011;27262;-35.248;149.138;2022-10-22T05:49:38;3.40;;;1.42;;
41532;SDS011;27262;-35.248;149.138;2022-10-22T05:52:08;7.20;;;1.42;;
41532;SDS011;27262;-35.248;149.138;2022-10-22T05:54:39;4.88;;;1.58;;
41532;SDS011;27262;-35.248;149.138;2022-10-22T05:57:10;4.15;;;1.55;;
41532;SDS011;27262;-35.248;149.138;2022-10-22T05:59:40;4.43;;;1.40;;
41532;SDS011;27262;-35.248;149.138;2022-10-22T06:02:10;3.17;;;1.08;;
41532;SDS011;27262;-35.248;149.138;2022-10-22T06:04:40;1.95;;;1.10;;
41532;SDS011;27262;-35.248;149.138;2022-10-22T06:07:10;4.65;;;1.15;;
41532;SDS011;27262;-35.248;149.138;2022-10-22T06:09:44;1.98;;;1.00;;
41532;SDS011;27262;-35.248;149.138;2022-10-22T06:12:18;2.95;;;1.15;;
41532;SDS011;27262;-35.248;149.138;2022-10-22T06:14:48;3.47;;;1.30;;
41532;SDS011;27262;-35.248;149.138;2022-10-22T06:17:18;3.78;;;1.17;;
41532;SDS011;27262;-35.248;149.138;2022-10-22T06:19:48;5.05;;;1.40;;
41532;SDS011;27262;-35.248;149.138;2022-10-22T06:22:18;3.90;;;1.27;;
41532;SDS011;27262;-35.248;149.138;2022-10-22T06:24:49;3.00;;;1.20;;
41532;SDS011;27262;-35.248;149.138;2022-10-22T06:27:20;4.30;;;1.58;;
41532;SDS011;27262;-35.248;149.138;2022-10-22T06:29:50;5.32;;;1.38;;
41532;SDS011;27262;-35.248;149.138;2022-10-22T06:32:20;2.95;;;1.30;;
41532;SDS011;27262;-35.248;149.138;2022-10-22T06:34:50;4.43;;;1.70;;
41532;SDS011;27262;-35.248;149.138;2022-10-22T06:37:20;2.90;;;1.20;;
41532;SDS011;27262;-35.248;149.138;2022-10-22T06:39:50;7.30;;;1.65;;
41532;SDS011;27262;-35.248;149.138;2022-10-22T06:42:21;4.18;;;1.70;;
41532;SDS011;27262;-35.248;149.138;2022-10-22T06:44:51;5.20;;;1.42;;
41532;SDS011;27262;-35.248;149.138;2022-10-22T06:47:21;3.88;;;1.83;;
41532;SDS011;27262;-35.248;149.138;2022-10-22T06:49:52;5.13;;;1.70;;
41532;SDS011;27262;-35.248;149.138;2022-10-22T06:52:22;3.85;;;1.20;;
41532;SDS011;27262;-35.248;149.138;2022-10-22T06:54:52;3.15;;;1.40;;
41532;SDS011;27262;-35.248;149.138;2022-10-22T06:57:22;4.78;;;1.30;;
41532;SDS011;27262;-35.248;149.138;2022-10-22T06:59:52;3.42;;;1.48;;
41532;SDS011;27262;-35.248;149.138;2022-10-22T07:02:23;4.65;;;1.50;;
41532;SDS011;27262;-35.248;149.138;2022-10-22T07:04:53;2.97;;;1.73;;
41532;SDS011;27262;-35.248;149.138;2022-10-22T07:07:23;2.88;;;1.50;;
41532;SDS011;27262;-35.248;149.138;2022-10-22T07:09:53;4.47;;;1.83;;
41532;SDS011;27262;-35.248;149.138;2022-10-22T07:12:23;5.55;;;1.50;;
41532;SDS011;27262;-35.248;149.138;2022-10-22T07:14:54;5.47;;;1.70;;
41532;SDS011;27262;-35.248;149.138;2022-10-22T07:17:24;2.35;;;1.77;;
41532;SDS011;27262;-35.248;149.138;2022-10-22T07:19:54;3.53;;;1.67;;
41532;SDS011;27262;-35.248;149.138;2022-10-22T07:22:24;2.92;;;1.35;;
41532;SDS011;27262;-35.248;149.138;2022-10-22T07:24:55;2.42;;;1.13;;
41532;SDS011;27262;-35.248;149.138;2022-10-22T07:27:29;7.63;;;1.67;;
41532;SDS011;27262;-35.248;149.138;2022-10-22T07:29:59;2.80;;;1.40;;
41532;SDS011;27262;-35.248;149.138;2022-10-22T07:32:30;2.42;;;1.45;;
41532;SDS011;27262;-35.248;149.138;2022-10-22T07:35:00;2.78;;;1.10;;
41532;SDS011;27262;-35.248;149.138;2022-10-22T07:37:30;6.13;;;1.73;;
41532;SDS011;27262;-35.248;149.138;2022-10-22T07:40:00;2.70;;;1.40;;
41532;SDS011;27262;-35.248;149.138;2022-10-22T07:42:31;3.85;;;1.30;;
41532;SDS011;27262;-35.248;149.138;2022-10-22T07:45:02;3.03;;;1.40;;
41532;SDS011;27262;-35.248;149.138;2022-10-22T07:47:33;3.33;;;1.45;;
41532;SDS011;27262;-35.248;149.138;2022-10-22T07:50:03;2.97;;;1.33;;
41532;SDS011;27262;-35.248;149.138;2022-10-22T07:52:34;6.13;;;1.73;;
41532;SDS011;27262;-35.248;149.138;2022-10-22T07:55:05;2.38;;;1.48;;
41532;SDS011;27262;-35.248;149.138;2022-10-22T07:57:36;2.50;;;1.42;;
41532;SDS011;27262;-35.248;149.138;2022-10-22T08:00:07;4.45;;;1.40;;
41532;SDS011;27262;-35.248;149.138;2022-10-22T08:02:37;3.72;;;1.45;;
41532;SDS011;27262;-35.248;149.138;2022-10-22T08:05:08;4.03;;;1.90;;
41532;SDS011;27262;-35.248;149.138;2022-10-22T08:07:40;4.50;;;1.75;;
41532;SDS011;27262;-35.248;149.138;2022-10-22T08:10:11;3.20;;;1.40;;
41532;SDS011;27262;-35.248;149.138;2022-10-22T08:12:42;2.22;;;1.27;;
41532;SDS011;27262;-35.248;149.138;2022-10-22T08:15:12;3.30;;;1.02;;
41532;SDS011;27262;-35.248;149.138;2022-10-22T08:17:42;2.50;;;1.40;;
41532;SDS011;27262;-35.248;149.138;2022-10-22T08:20:12;2.35;;;1.30;;
41532;SDS011;27262;-35.248;149.138;2022-10-22T08:22:43;2.85;;;1.75;;
41532;SDS011;27262;-35.248;149.138;2022-10-22T08:25:13;2.03;;;1.23;;
41532;SDS011;27262;-35.248;149.138;2022-10-22T08:27:45;3.63;;;1.13;;
41532;SDS011;27262;-35.248;149.138;2022-10-22T08:30:16;3.30;;;1.30;;
41532;SDS011;27262;-35.248;149.138;2022-10-22T08:32:47;4.07;;;1.52;;
41532;SDS011;27262;-35.248;149.138;2022-10-22T08:35:20;3.38;;;1.13;;
41532;SDS011;27262;-35.248;149.138;2022-10-22T08:37:50;2.67;;;1.23;;
41532;SDS011;27262;-35.248;149.138;2022-10-22T08:40:23;2.65;;;1.30;;
41532;SDS011;27262;-35.248;149.138;2022-10-22T08:46:29;2.13;;;1.20;;
41532;SDS011;27262;-35.248;149.138;2022-10-22T08:48:36;2.22;;;1.13;;
41532;SDS011;27262;-35.248;149.138;2022-10-22T08:51:17;1.90;;;1.15;;
41532;SDS011;27262;-35.248;149.138;2022-10-22T08:57:36;2.35;;;1.30;;
41532;SDS011;27262;-35.248;149.138;2022-10-22T08:59:53;2.75;;;0.98;;
41532;SDS011;27262;-35.248;149.138;2022-10-22T09:08:11;3.63;;;1.30;;
41532;SDS011;27262;-35.248;149.138;2022-10-22T09:10:56;1.83;;;1.10;;
41532;SDS011;27262;-35.248;149.138;2022-10-22T09:13:47;3.35;;;1.38;;
41532;SDS011;27262;-35.248;149.138;2022-10-22T09:22:16;3.90;;;1.20;;
41532;SDS011;27262;-35.248;149.138;2022-10-22T09:25:01;3.80;;;1.42;;
41532;SDS011;27262;-35.248;149.138;2022-10-22T09:27:41;2.55;;;0.85;;
41532;SDS011;27262;-35.248;149.138;2022-10-22T09:30:19;2.55;;;1.30;;
41532;SDS011;27262;-35.248;149.138;2022-10-22T09:33:05;1.95;;;1.20;;
41532;SDS011;27262;-35.248;149.138;2022-10-22T09:38:27;4.45;;;1.50;;
41532;SDS011;27262;-35.248;149.138;2022-10-22T09:41:00;2.05;;;1.15;;
41532;SDS011;27262;-35.248;149.138;2022-10-22T09:43:31;2.22;;;1.00;;
41532;SDS011;27262;-35.248;149.138;2022-10-22T09:46:05;2.25;;;1.23;;
41532;SDS011;27262;-35.248;149.138;2022-10-22T09:48:43;3.67;;;1.10;;
41532;SDS011;27262;-35.248;149.138;2022-10-22T09:51:52;1.48;;;0.80;;
41532;SDS011;27262;-35.248;149.138;2022-10-22T09:57:05;1.40;;;0.90;;
41532;SDS011;27262;-35.248;149.138;2022-10-22T09:59:38;2.28;;;1.17;;
41532;SDS011;27262;-35.248;149.138;2022-10-22T10:02:11;2.70;;;1.10;;
41532;SDS011;27262;-35.248;149.138;2022-10-22T10:05:04;2.00;;;1.00;;
41532;SDS011;27262;-35.248;149.138;2022-10-22T10:07:35;2.35;;;1.27;;
41532;SDS011;27262;-35.248;149.138;2022-10-22T10:10:16;1.33;;;0.88;;
41532;SDS011;27262;-35.248;149.138;2022-10-22T10:21:24;1.35;;;0.80;;
41532;SDS011;27262;-35.248;149.138;2022-10-22T10:27:18;2.40;;;0.80;;
41532;SDS011;27262;-35.248;149.138;2022-10-22T10:30:16;0.95;;;0.70;;
41532;SDS011;27262;-35.248;149.138;2022-10-22T10:49:30;1.58;;;0.95;;
41532;SDS011;27262;-35.248;149.138;2022-10-22T10:52:18;2.03;;;0.80;;
41532;SDS011;27262;-35.248;149.138;2022-10-22T11:00:25;1.20;;;1.00;;
41532;SDS011;27262;-35.248;149.138;2022-10-22T11:06:03;1.30;;;0.90;;
41532;SDS011;27262;-35.248;149.138;2022-10-22T11:11:58;1.27;;;0.88;;
41532;SDS011;27262;-35.248;149.138;2022-10-22T11:14:39;1.83;;;0.80;;
41532;SDS011;27262;-35.248;149.138;2022-10-22T11:17:20;1.35;;;0.80;;
41532;SDS011;27262;-35.248;149.138;2022-10-22T11:19:57;1.10;;;0.70;;
41532;SDS011;27262;-35.248;149.138;2022-10-22T11:23:01;3.10;;;1.05;;
41532;SDS011;27262;-35.248;149.138;2022-10-22T11:25:47;2.08;;;0.90;;
41532;SDS011;27262;-35.248;149.138;2022-10-22T11:28:27;1.20;;;0.98;;
41532;SDS011;27262;-35.248;149.138;2022-10-22T11:30:59;1.40;;;0.70;;
41532;SDS011;27262;-35.248;149.138;2022-10-22T11:33:37;0.93;;;0.80;;
41532;SDS011;27262;-35.248;149.138;2022-10-22T11:36:11;1.63;;;0.68;;
41532;SDS011;27262;-35.248;149.138;2022-10-22T11:38:43;0.60;;;0.60;;
41532;SDS011;27262;-35.248;149.138;2022-10-22T11:41:16;1.58;;;0.70;;
41532;SDS011;27262;-35.248;149.138;2022-10-22T11:43:55;1.58;;;0.85;;
41532;SDS011;27262;-35.248;149.138;2022-10-22T11:47:14;0.90;;;0.80;;
41532;SDS011;27262;-35.248;149.138;2022-10-22T11:49:27;1.20;;;0.82;;
41532;SDS011;27262;-35.248;149.138;2022-10-22T11:52:21;1.85;;;0.65;;
41532;SDS011;27262;-35.248;149.138;2022-10-22T11:54:54;2.47;;;0.70;;
41532;SDS011;27262;-35.248;149.138;2022-10-22T11:57:27;3.13;;;0.80;;
41532;SDS011;27262;-35.248;149.138;2022-10-22T12:00:48;1.05;;;0.70;;
41532;SDS011;27262;-35.248;149.138;2022-10-22T12:04:16;0.70;;;0.60;;
41532;SDS011;27262;-35.248;149.138;2022-10-22T12:14:27;0.80;;;0.70;;
41532;SDS011;27262;-35.248;149.138;2022-10-22T12:17:09;1.15;;;0.68;;
41532;SDS011;27262;-35.248;149.138;2022-10-22T12:22:29;0.90;;;0.65;;
41532;SDS011;27262;-35.248;149.138;2022-10-22T12:25:02;1.05;;;0.68;;
41532;SDS011;27262;-35.248;149.138;2022-10-22T12:27:48;0.93;;;0.77;;
41532;SDS011;27262;-35.248;149.138;2022-10-22T12:30:22;2.15;;;0.88;;
41532;SDS011;27262;-35.248;149.138;2022-10-22T12:32:55;0.80;;;0.60;;
41532;SDS011;27262;-35.248;149.138;2022-10-22T12:35:53;1.13;;;0.73;;
41532;SDS011;27262;-35.248;149.138;2022-10-22T12:38:24;1.13;;;0.77;;
41532;SDS011;27262;-35.248;149.138;2022-10-22T12:40:55;1.00;;;0.68;;
41532;SDS011;27262;-35.248;149.138;2022-10-22T12:43:27;0.60;;;0.60;;
41532;SDS011;27262;-35.248;149.138;2022-10-22T12:45:58;0.70;;;0.57;;
41532;SDS011;27262;-35.248;149.138;2022-10-22T12:48:32;1.48;;;0.80;;
41532;SDS011;27262;-35.248;149.138;2022-10-22T12:51:07;0.85;;;0.50;;
41532;SDS011;27262;-35.248;149.138;2022-10-22T12:53:42;0.57;;;0.50;;
41532;SDS011;27262;-35.248;149.138;2022-10-22T12:56:28;0.98;;;0.63;;
41532;SDS011;27262;-35.248;149.138;2022-10-22T12:59:02;1.83;;;0.80;;
41532;SDS011;27262;-35.248;149.138;2022-10-22T13:01:58;0.85;;;0.63;;
41532;SDS011;27262;-35.248;149.138;2022-10-22T13:04:34;0.70;;;0.60;;
41532;SDS011;27262;-35.248;149.138;2022-10-22T13:10:34;0.95;;;0.60;;
41532;SDS011;27262;-35.248;149.138;2022-10-22T13:12:55;1.05;;;0.60;;
41532;SDS011;27262;-35.248;149.138;2022-10-22T13:20:51;1.17;;;0.70;;
41532;SDS011;27262;-35.248;149.138;2022-10-22T13:23:24;0.47;;;0.47;;
41532;SDS011;27262;-35.248;149.138;2022-10-22T13:25:56;0.65;;;0.60;;
41532;SDS011;27262;-35.248;149.138;2022-10-22T13:28:53;0.75;;;0.65;;
41532;SDS011;27262;-35.248;149.138;2022-10-22T13:31:26;0.52;;;0.47;;
41532;SDS011;27262;-35.248;149.138;2022-10-22T13:34:05;1.02;;;0.50;;
41532;SDS011;27262;-35.248;149.138;2022-10-22T13:36:43;1.58;;;0.70;;
41532;SDS011;27262;-35.248;149.138;2022-10-22T13:39:17;0.82;;;0.40;;
41532;SDS011;27262;-35.248;149.138;2022-10-22T13:41:49;1.15;;;0.55;;
41532;SDS011;27262;-35.248;149.138;2022-10-22T13:44:19;0.80;;;0.50;;
41532;SDS011;27262;-35.248;149.138;2022-10-22T13:46:49;0.68;;;0.52;;
41532;SDS011;27262;-35.248;149.138;2022-10-22T13:49:20;0.80;;;0.50;;
41532;SDS011;27262;-35.248;149.138;2022-10-22T13:51:50;0.77;;;0.60;;
41532;SDS011;27262;-35.248;149.138;2022-10-22T13:54:21;0.55;;;0.45;;
41532;SDS011;27262;-35.248;149.138;2022-10-22T13:56:52;1.50;;;0.52;;
41532;SDS011;27262;-35.248;149.138;2022-10-22T13:59:22;0.73;;;0.60;;
41532;SDS011;27262;-35.248;149.138;2022-10-22T14:01:53;1.05;;;0.70;;
41532;SDS011;27262;-35.248;149.138;2022-10-22T14:04:24;0.98;;;0.55;;
41532;SDS011;27262;-35.248;149.138;2022-10-22T14:06:54;0.98;;;0.68;;
41532;SDS011;27262;-35.248;149.138;2022-10-22T14:09:29;0.73;;;0.40;;
41532;SDS011;27262;-35.248;149.138;2022-10-22T14:11:59;1.83;;;0.70;;
41532;SDS011;27262;-35.248;149.138;2022-10-22T14:14:29;1.05;;;0.60;;
41532;SDS011;27262;-35.248;149.138;2022-10-22T14:16:59;3.13;;;0.70;;
41532;SDS011;27262;-35.248;149.138;2022-10-22T14:19:30;0.90;;;0.60;;
41532;SDS011;27262;-35.248;149.138;2022-10-22T14:22:01;0.65;;;0.50;;
41532;SDS011;27262;-35.248;149.138;2022-10-22T14:24:31;1.13;;;0.80;;
41532;SDS011;27262;-35.248;149.138;2022-10-22T14:27:01;0.88;;;0.65;;
41532;SDS011;27262;-35.248;149.138;2022-10-22T14:29:31;0.82;;;0.60;;
41532;SDS011;27262;-35.248;149.138;2022-10-22T14:32:01;0.70;;;0.50;;
41532;SDS011;27262;-35.248;149.138;2022-10-22T14:34:32;0.88;;;0.50;;
41532;SDS011;27262;-35.248;149.138;2022-10-22T14:37:02;0.88;;;0.60;;
41532;SDS011;27262;-35.248;149.138;2022-10-22T14:39:32;0.82;;;0.50;;
41532;SDS011;27262;-35.248;149.138;2022-10-22T14:42:05;1.05;;;0.60;;
41532;SDS011;27262;-35.248;149.138;2022-10-22T14:44:36;0.50;;;0.50;;
41532;SDS011;27262;-35.248;149.138;2022-10-22T14:47:07;0.85;;;0.70;;
41532;SDS011;27262;-35.248;149.138;2022-10-22T14:49:37;0.63;;;0.57;;
41532;SDS011;27262;-35.248;149.138;2022-10-22T14:52:07;0.60;;;0.45;;
41532;SDS011;27262;-35.248;149.138;2022-10-22T14:54:40;0.98;;;0.50;;
41532;SDS011;27262;-35.248;149.138;2022-10-22T14:57:11;0.43;;;0.43;;
41532;SDS011;27262;-35.248;149.138;2022-10-22T14:59:42;0.60;;;0.57;;
41532;SDS011;27262;-35.248;149.138;2022-10-22T15:02:12;0.50;;;0.50;;
41532;SDS011;27262;-35.248;149.138;2022-10-22T15:04:42;0.90;;;0.60;;
41532;SDS011;27262;-35.248;149.138;2022-10-22T15:07:13;1.02;;;0.50;;
41532;SDS011;27262;-35.248;149.138;2022-10-22T15:09:45;0.50;;;0.50;;
41532;SDS011;27262;-35.248;149.138;2022-10-22T15:12:15;0.57;;;0.50;;
41532;SDS011;27262;-35.248;149.138;2022-10-22T15:14:48;0.60;;;0.52;;
41532;SDS011;27262;-35.248;149.138;2022-10-22T15:17:18;0.73;;;0.47;;
41532;SDS011;27262;-35.248;149.138;2022-10-22T15:19:49;0.68;;;0.50;;
41532;SDS011;27262;-35.248;149.138;2022-10-22T15:22:20;1.30;;;0.70;;
41532;SDS011;27262;-35.248;149.138;2022-10-22T15:24:50;0.52;;;0.52;;
41532;SDS011;27262;-35.248;149.138;2022-10-22T15:27:21;0.63;;;0.52;;
41532;SDS011;27262;-35.248;149.138;2022-10-22T15:29:51;0.60;;;0.50;;
41532;SDS011;27262;-35.248;149.138;2022-10-22T15:32:25;0.70;;;0.50;;
41532;SDS011;27262;-35.248;149.138;2022-10-22T15:34:56;1.15;;;0.50;;
41532;SDS011;27262;-35.248;149.138;2022-10-22T15:37:26;0.43;;;0.40;;
41532;SDS011;27262;-35.248;149.138;2022-10-22T15:39:56;0.98;;;0.70;;
41532;SDS011;27262;-35.248;149.138;2022-10-22T15:42:28;0.40;;;0.40;;
41532;SDS011;27262;-35.248;149.138;2022-10-22T15:44:58;0.63;;;0.60;;
41532;SDS011;27262;-35.248;149.138;2022-10-22T15:47:29;1.02;;;0.57;;
41532;SDS011;27262;-35.248;149.138;2022-10-22T15:50:01;0.52;;;0.52;;
41532;SDS011;27262;-35.248;149.138;2022-10-22T15:52:31;0.95;;;0.57;;
41532;SDS011;27262;-35.248;149.138;2022-10-22T15:55:01;0.82;;;0.60;;
41532;SDS011;27262;-35.248;149.138;2022-10-22T15:57:34;0.50;;;0.50;;
41532;SDS011;27262;-35.248;149.138;2022-10-22T16:00:06;0.50;;;0.43;;
41532;SDS011;27262;-35.248;149.138;2022-10-22T16:02:36;0.50;;;0.50;;
41532;SDS011;27262;-35.248;149.138;2022-10-22T16:05:07;0.60;;;0.40;;
41532;SDS011;27262;-35.248;149.138;2022-10-22T16:07:37;0.52;;;0.52;;
41532;SDS011;27262;-35.248;149.138;2022-10-22T16:10:08;0.88;;;0.40;;
41532;SDS011;27262;-35.248;149.138;2022-10-22T16:12:40;1.00;;;0.60;;
41532;SDS011;27262;-35.248;149.138;2022-10-22T16:15:10;0.40;;;0.40;;
41532;SDS011;27262;-35.248;149.138;2022-10-22T16:17:40;0.73;;;0.47;;
41532;SDS011;27262;-35.248;149.138;2022-10-22T16:20:10;0.60;;;0.50;;
41532;SDS011;27262;-35.248;149.138;2022-10-22T16:22:41;1.48;;;0.52;;
41532;SDS011;27262;-35.248;149.138;2022-10-22T16:25:11;0.70;;;0.40;;
41532;SDS011;27262;-35.248;149.138;2022-10-22T16:27:41;0.60;;;0.50;;
41532;SDS011;27262;-35.248;149.138;2022-10-22T16:30:12;0.68;;;0.50;;
41532;SDS011;27262;-35.248;149.138;2022-10-22T16:32:43;0.50;;;0.50;;
41532;SDS011;27262;-35.248;149.138;2022-10-22T16:35:13;0.77;;;0.50;;
41532;SDS011;27262;-35.248;149.138;2022-10-22T16:37:43;0.43;;;0.40;;
41532;SDS011;27262;-35.248;149.138;2022-10-22T16:40:14;0.52;;;0.47;;